Virgil, KS (66870)

12:38 PM CDT on August 29, 2015 (GMT -0500)
Toronto, KS | | Change Station
CLOSE
Current Station
Personal Weather Station
Location: Toronto, KS
Elevation: 971 ft
Nearby Weather Stations

Elev 971 ft 37.80 °N, 95.95 °W | Updated 8 minutes ago

Mostly Cloudy
Mostly Cloudy
78.1 °F
Feels Like 80 °F
N
0.0
Wind Variable Wind from North
Gusts 6.0 mph

Today
High -- | Low -- °F
--% Chance of Precip.
Yesterday
High -- | Low -- °F
Precip. -- in
6:51 AM 7:58 PM
Full, 100% visible
Pressure 30.04 in
Visibility 10.0 miles
Clouds Scattered Clouds 1400 ft
Overcast 2100 ft
Heat Index 80 °F
Dew Point 65 °F
Humidity 64%
Rainfall 0.00 in
Snow Depth Not available.
UV 3 out of 12
Pollen 8.40 out of 12
Air Quality Not available.
Flu Activity Not available.
METAR KEMP 291653Z AUTO 35005KT 10SM SCT014 OVC021 20/16 A3006 RMK AO2 SLP173 T02000161
Pressure 30.04 in
Visibility 10.0 miles
Clouds Scattered Clouds 1400 ft
Overcast 2100 ft
Heat Index 80 °F
Dew Point 65 °F
Humidity 64%
Rainfall 0.00 in
Snow Depth Not available.
UV 3 out of 12
Pollen 8.40 out of 12
Air Quality Not available.
Flu Activity Not available.
METAR KEMP 291653Z AUTO 35005KT 10SM SCT014 OVC021 20/16 A3006 RMK AO2 SLP173 T02000161

10-Day Weather Forecast

×

Almanac

Astronomy

Aug. 29, 2015 Rise Set
Actual Time
Civil Twilight
Nautical Twilight
Astronomical Twilight
Moon
Length of Visible Light
Length of Day
Tomorrow will be .
, % of the Moon is Illuminated

Today's Extremes

State Highs State Lows

Community

WunderPhotos

Upload Photos

1,850,735 photos uploaded!

WunderBlogs® & News

Nearby

Air Quality

  Air Quality AQ Index Pollutant
Not available.

Snow Depth

Station Depth Elevation

Earthquake Activity

City Distance Mag. Time & Date
Minimum magnitude displayed is 2.5.

Coastal Water Temperatures

Place Temperature

Stations

Nearby Weather Stations

Station Location Temp. Windchill Dew Point Humidity Wind Precip. Elev Updated Type